Terminal Aerodrome Forecast
Issued by NWS Burlington, VT

Home | Current Version | Previous Version | Text Only | Print | Product List | Glossary On
Versions: 1 2 3 4 5 6 7 8 9 10 11 12 13 14 15 16 17 18
285
FTUS41 KBTV 090113 AAA
TAFBTV
TAF AMD
KBTV 090113Z 0901/0924 03004KT 2SM -SN BR OVC030
     FM091000 VRB03KT P6SM VCSH OVC025
     FM091400 00000KT P6SM VCSH OVC050=

USA.gov is the U.S. government's official web portal to all federal, state and local government web resources and services.